Time;durP1;ratioP1;P1;durP2;ratioP2;P2;SDS_P1;SDS_P2;PMS_P1;PMS_P2;Temp;Humidity;BMP_temperature;BMP_pressure;BME280_temperature;BME280_humidity;BME280_pressure;Samples;Min_cycle;Max_cycle;Signal;HPM_P1;HPM_P2
2022/11/17 00:00:32;;;;;;;;;;;;;;;;;;;;;
2022/11/17 00:03:09;;;;;;;20.20;15.95;;;;;;;19.94;56.22;100512.91;143727;581;46010;-60
2022/11/17 00:05:45;;;;;;;21.60;14.95;;;;;;;19.96;55.71;100512.63;143730;730;46004;-60
2022/11/17 00:08:23;;;;;;;19.95;14.70;;;;;;;19.97;56.12;100514.28;143726;595;46011;-60
2022/11/17 00:11:00;;;;;;;19.80;15.40;;;;;;;19.96;55.68;100518.09;143723;572;46006;-61
2022/11/17 00:16:30;;;;;;;21.10;15.65;;;;;;;19.90;56.76;100508.28;143728;596;46006;-61
2022/11/17 00:22:02;;;;;;;17.25;14.70;;;;;;;19.82;56.73;100520.47;143728;600;46008;-61
2022/11/17 00:24:38;;;;;;;21.90;15.00;;;;;;;19.77;56.70;100526.69;143727;590;46007;-60
2022/11/17 00:27:15;;;;;;;17.35;13.73;;;;;;;19.84;56.93;100502.75;143727;581;46008;-59
2022/11/17 00:29:53;;;;;;;18.40;13.20;;;;;;;19.79;57.30;100508.19;143725;693;46012;-60
2022/11/17 00:35:28;;;;;;;17.05;12.63;;;;;;;19.78;57.19;100525.63;143726;634;46008;-61
2022/11/17 00:38:16;;;;;;;15.35;12.73;;;;;;;19.83;57.43;100513.94;143721;757;46009;-60
2022/11/17 00:40:52;;;;;;;16.48;12.57;;;;;;;19.87;58.32;100519.66;143727;705;46010;-61
2022/11/17 00:43:28;;;;;;;18.62;13.65;;;;;;;19.85;58.28;100539.84;143727;591;46006;-60
2022/11/17 00:46:09;;;;;;;20.20;13.82;;;;;;;19.84;58.50;100519.13;143726;581;46006;-60
2022/11/17 00:48:47;;;;;;;17.52;14.13;;;;;;;19.85;60.69;100519.94;143728;854;46004;-61
2022/11/17 00:51:23;;;;;;;20.42;17.73;;;;;;;19.80;59.56;100541.72;143729;582;46004;-60
2022/11/17 00:54:09;;;;;;;;;;;;;;;;;;;;;
2022/11/17 00:56:46;;;;;;;21.48;14.73;;;;;;;19.75;59.96;100519.88;143726;981;46013;-61
2022/11/17 00:59:21;;;;;;;11.68;9.50;;;;;;;19.79;59.18;100523.72;143727;635;46008;-60
2022/11/17 01:02:01;;;;;;;12.02;8.55;;;;;;;19.82;58.96;100523.19;143727;583;46929;-62
2022/11/17 01:04:38;;;;;;;9.95;7.50;;;;;;;19.80;58.58;100523.44;143724;608;47006;-61
2022/11/17 01:07:21;;;;;;;11.15;7.15;;;;;;;19.85;58.85;100520.75;143729;593;46008;-61
2022/11/17 01:10:00;;;;;;;12.98;5.87;;;;;;;19.80;59.48;100515.28;143728;590;46012;-61
2022/11/17 01:12:37;;;;;;;12.55;5.22;;;;;;;19.84;59.43;100518.31;143726;613;46010;-60
2022/11/17 01:15:17;;;;;;;8.65;4.05;;;;;;;19.85;57.71;100517.22;143725;569;46015;-61
2022/11/17 01:17:53;;;;;;;6.35;3.40;;;;;;;19.87;58.04;100517.78;143726;587;46008;-60
2022/11/17 01:20:31;;;;;;;8.18;3.15;;;;;;;19.88;59.34;100508.53;143729;613;46010;-61
2022/11/17 01:23:05;;;;;;;7.82;3.50;;;;;;;19.87;59.85;100514.22;143728;567;45928;-61
2022/11/17 01:25:41;;;;;;;6.68;3.33;;;;;;;19.85;59.47;100511.78;143728;569;46006;-60
2022/11/17 01:28:22;;;;;;;10.50;3.25;;;;;;;19.84;59.30;100513.66;143728;957;46008;-61
2022/11/17 01:31:05;;;;;;;7.03;2.70;;;;;;;19.87;58.76;100520.50;143723;603;46007;-62
2022/11/17 01:33:43;;;;;;;3.80;2.22;;;;;;;19.89;58.04;100504.72;143728;741;46012;-60
2022/11/17 01:39:33;;;;;;;6.97;2.87;;;;;;;19.82;59.42;100507.66;143728;666;46010;-61
2022/11/17 01:42:31;;;;;;;;;;;;;;;;;;;;;
2022/11/17 01:45:27;;;;;;;3.78;2.83;;;;;;;19.82;58.22;100499.47;143729;764;46010;-61
2022/11/17 01:48:15;;;;;;;5.55;2.67;;;;;;;19.84;57.17;100496.50;143727;786;46006;-60
2022/11/17 01:51:01;;;;;;;4.97;2.87;;;;;;;19.90;56.71;100497.38;143727;595;46008;-61
2022/11/17 01:53:38;;;;;;;7.50;4.82;;;;;;;19.91;55.55;100499.00;143727;590;46010;-60
2022/11/17 01:56:17;;;;;;;7.22;3.65;;;;;;;19.93;55.45;100505.03;143726;573;46008;-60
2022/11/17 01:59:14;;;;;;;5.55;2.87;;;;;;;19.95;55.98;100500.09;143724;577;46010;-60
2022/11/17 02:01:56;;;;;;;10.77;2.53;;;;;;;19.96;55.61;100504.47;143727;591;46008;-63
2022/11/17 02:04:48;;;;;;;7.25;2.83;;;;;;;19.94;56.28;100512.13;143729;631;46004;-61
2022/11/17 02:07:53;;;;;;;7.12;2.72;;;;;;;19.93;56.12;100511.28;143725;720;46010;-61
2022/11/17 02:10:31;;;;;;;4.80;2.40;;;;;;;19.91;55.97;100501.75;143727;611;46019;-62
2022/11/17 02:13:10;;;;;;;5.05;2.17;;;;;;;19.92;55.81;100489.75;143725;671;46008;-60
2022/11/17 02:15:58;;;;;;;5.15;2.70;;;;;;;19.95;55.49;100503.66;143728;579;46006;-61
2022/11/17 02:18:34;;;;;;;5.37;2.55;;;;;;;19.98;54.35;100505.03;143726;566;46020;-62
2022/11/17 02:21:52;;;;;;;7.10;2.47;;;;;;;20.02;55.05;100511.59;143726;578;46006;-61
2022/11/17 02:25:05;;;;;;;4.78;2.25;;;;;;;20.04;55.29;100506.69;143727;621;46008;-61
2022/11/17 02:28:26;;;;;;;4.87;2.70;;;;;;;20.04;54.92;100503.97;143728;603;46013;-61
2022/11/17 02:31:39;;;;;;;5.90;2.60;;;;;;;20.03;54.28;100507.78;143726;603;46008;-61
2022/11/17 02:34:54;;;;;;;4.80;2.78;;;;;;;19.95;52.40;100502.81;143727;568;46006;-61
2022/11/17 02:37:53;;;;;;;7.05;3.60;;;;;;;20.03;53.22;100502.31;143727;816;46023;-60
2022/11/17 02:40:45;;;;;;;5.22;3.47;;;;;;;20.03;53.92;100505.03;143727;570;46010;-61
2022/11/17 02:46:34;;;;;;;5.45;3.28;;;;;;;20.02;54.38;100502.59;143728;634;46011;-61
2022/11/17 02:49:18;;;;;;;8.15;3.92;;;;;;;20.07;55.32;100494.41;143725;568;46008;-61
2022/11/17 02:51:57;;;;;;;5.10;3.42;;;;;;;20.10;55.31;100488.44;143728;573;46006;-62
2022/11/17 02:54:34;;;;;;;7.20;2.85;;;;;;;20.00;53.96;100486.50;143725;873;46013;-62
2022/11/17 02:57:52;;;;;;;5.57;3.40;;;;;;;20.01;54.19;100488.13;143726;591;46006;-61
2022/11/17 03:00:31;;;;;;;9.75;4.07;;;;;;;20.04;56.06;100490.34;143728;600;46007;-62
2022/11/17 03:03:47;;;;;;;6.85;3.30;;;;;;;20.07;54.45;100484.34;143729;567;46004;-62
2022/11/17 03:06:39;;;;;;;;;;;;;;;20.09;54.34;100490.34;143734;982;46011;-61
2022/11/17 03:09:54;;;;;;;5.70;3.45;;;;;;;20.05;54.04;100469.31;143732;882;47004;-61
2022/11/17 03:12:53;;;;;;;4.40;3.35;;;;;;;20.07;55.16;100468.00;143729;585;46008;-60
2022/11/17 03:16:02;;;;;;;5.10;3.45;;;;;;;20.06;55.05;100469.06;143729;602;46004;-60
2022/11/17 03:18:59;;;;;;;12.00;3.80;;;;;;;19.94;53.70;100471.22;143724;595;46012;-61
2022/11/17 03:21:52;;;;;;;8.07;3.65;;;;;;;19.95;54.17;100472.84;143728;579;46004;-61
2022/11/17 03:24:42;;;;;;;7.82;4.50;;;;;;;19.96;57.63;100466.31;143728;600;46006;-61
2022/11/17 03:27:23;;;;;;;9.88;4.90;;;;;;;19.88;55.98;100464.91;143724;739;46004;-61
2022/11/17 03:30:01;;;;;;;7.15;3.97;;;;;;;19.77;55.34;100479.56;143726;576;46010;-60
2022/11/17 03:32:47;;;;;;;5.15;3.80;;;;;;;19.85;58.17;100457.28;143728;576;46008;-61
2022/11/17 03:35:29;;;;;;;8.10;4.20;;;;;;;19.84;57.46;100442.00;143727;788;46004;-61
2022/11/17 03:38:21;;;;;;;7.20;3.28;;;;;;;19.86;56.37;100426.19;143728;693;46005;-61
2022/11/17 03:41:02;;;;;;;6.90;4.25;;;;;;;19.89;55.77;100438.50;143725;566;46008;-61
2022/11/17 03:43:38;;;;;;;6.25;3.70;;;;;;;19.90;55.65;100443.66;143727;603;46009;-61
2022/11/17 03:46:18;;;;;;;7.35;4.37;;;;;;;19.95;55.71;100445.59;143728;592;46006;-61
2022/11/17 03:49:10;;;;;;;;;;;;;;;;;;;;;
2022/11/17 03:51:46;;;;;;;7.80;4.70;;;;;;;19.96;56.20;100455.41;143727;573;46010;-61
2022/11/17 03:54:26;;;;;;;16.95;6.70;;;;;;;19.89;57.09;100465.75;143723;583;47004;-61
2022/11/17 03:57:28;;;;;;;15.70;6.45;;;;;;;19.87;57.51;100452.38;143728;572;46006;-61
2022/11/17 04:00:15;;;;;;;11.35;5.00;;;;;;;19.88;58.52;100445.03;143726;643;46010;-62
2022/11/17 04:03:00;;;;;;;10.93;7.25;;;;;;;19.81;58.42;100459.69;143727;590;46024;-61
2022/11/17 04:05:39;;;;;;;10.57;6.40;;;;;;;19.80;58.68;100460.78;143726;582;47006;-62
2022/11/17 04:08:15;;;;;;;11.75;6.22;;;;;;;19.80;59.71;100443.63;143726;578;46008;-61
2022/11/17 04:16:35;;;;;;;10.45;6.37;;;;;;;19.73;58.97;100440.31;143725;912;46010;-61
2022/11/17 04:19:09;;;;;;;10.10;6.90;;;;;;;19.75;58.63;100443.59;143725;576;46008;-61
2022/11/17 04:21:45;;;;;;;11.43;6.70;;;;;;;19.77;58.37;100431.31;143720;603;46010;-61
2022/11/17 04:24:24;;;;;;;12.00;6.85;;;;;;;19.76;59.37;100435.16;143726;587;46010;-60
2022/11/17 04:29:50;;;;;;;7.87;6.03;;;;;;;19.69;60.21;100415.50;143727;590;46006;-61
2022/11/17 04:32:26;;;;;;;6.97;5.97;;;;;;;19.61;60.09;100435.91;143728;645;46006;-61
2022/11/17 04:35:02;;;;;;;9.77;7.10;;;;;;;19.59;59.76;100435.34;143726;602;46012;-62
2022/11/17 04:37:38;;;;;;;9.95;6.97;;;;;;;19.57;60.29;100428.56;143728;978;46012;-61
2022/11/17 04:40:14;;;;;;;11.25;6.32;;;;;;;19.54;60.61;100425.25;143725;573;47006;-61
2022/11/17 04:42:51;;;;;;;10.20;7.40;;;;;;;19.51;60.15;100425.78;143726;690;46005;-61
2022/11/17 04:45:32;;;;;;;13.02;7.35;;;;;;;19.45;60.99;100429.56;143723;567;46013;-61
2022/11/17 04:48:10;;;;;;;14.23;10.80;;;;;;;19.38;61.30;100429.00;143718;966;46006;-61
2022/11/17 04:50:45;;;;;;;15.57;12.18;;;;;;;19.34;61.46;100419.72;143725;578;46009;-61
2022/11/17 04:53:26;;;;;;;14.60;10.02;;;;;;;19.32;61.47;100424.59;143725;602;47002;-62
2022/11/17 04:56:08;;;;;;;17.48;8.90;;;;;;;19.26;61.34;100431.94;143724;842;46012;-61
2022/11/17 04:58:45;;;;;;;14.48;9.52;;;;;;;19.21;61.06;100431.91;143725;621;46007;-62
2022/11/17 05:01:32;;;;;;;13.30;8.88;;;;;;;19.18;61.70;100418.81;143725;580;46008;-61
2022/11/17 05:04:09;;;;;;;12.82;9.52;;;;;;;19.16;61.89;100418.25;143726;569;46010;-60
2022/11/17 05:06:48;;;;;;;13.55;9.48;;;;;;;19.13;61.09;100425.06;143723;784;46012;-61
2022/11/17 05:09:23;;;;;;;21.92;9.52;;;;;;;19.11;60.90;100427.22;143751;589;45928;-61
2022/11/17 05:14:51;;;;;;;12.65;9.63;;;;;;;19.14;61.36;100409.56;143749;604;45009;-61
2022/11/17 05:17:29;;;;;;;16.00;9.63;;;;;;;19.09;61.33;100416.59;143742;850;46006;-61
2022/11/17 05:20:05;;;;;;;19.77;10.70;;;;;;;19.04;61.23;100416.56;143734;658;46006;-61
2022/11/17 05:25:31;;;;;;;15.93;8.80;;;;;;;19.03;60.32;100414.91;143727;984;46011;-61
2022/11/17 05:28:11;;;;;;;16.92;9.93;;;;;;;19.03;59.90;100414.13;143730;586;46009;-61
2022/11/17 05:30:51;;;;;;;14.80;9.40;;;;;;;19.06;59.53;100408.16;143732;935;46006;-61
2022/11/17 05:33:28;;;;;;;15.80;10.18;;;;;;;19.04;58.92;100402.16;143729;572;46008;-61
2022/11/17 05:36:06;;;;;;;15.60;9.77;;;;;;;19.06;59.21;100405.44;143748;973;46002;-61
2022/11/17 05:38:43;;;;;;;22.52;10.10;;;;;;;19.04;59.53;100400.22;143749;769;45010;-61
2022/11/17 05:41:22;;;;;;;14.23;10.30;;;;;;;19.07;59.17;100394.25;143746;567;45930;-62
2022/11/17 05:44:00;;;;;;;14.10;9.73;;;;;;;19.06;60.58;100398.06;143744;585;45010;-62
2022/11/17 05:46:39;;;;;;;13.88;10.50;;;;;;;19.02;60.50;100401.59;143754;576;45008;-62
2022/11/17 05:49:16;;;;;;;14.23;10.43;;;;;;;18.96;61.12;100395.31;143750;733;45010;-61
2022/11/17 05:51:57;;;;;;;21.75;16.58;;;;;;;18.97;61.06;100409.72;143747;754;45010;-61
2022/11/17 05:54:36;;;;;;;23.27;15.70;;;;;;;19.04;60.24;100415.75;143747;572;45924;-61
2022/11/17 05:57:28;;;;;;;17.77;13.23;;;;;;;19.09;60.09;100407.59;143747;626;45013;-62
2022/11/17 06:00:04;;;;;;;15.82;12.90;;;;;;;19.11;60.27;100412.78;143748;652;45923;-60
2022/11/17 06:02:53;;;;;;;20.27;14.35;;;;;;;19.07;61.01;100415.19;143747;667;45006;-62
2022/11/17 06:05:37;;;;;;;21.05;14.87;;;;;;;19.08;61.23;100425.00;143749;973;45009;-61
2022/11/17 06:08:20;;;;;;;17.58;13.98;;;;;;;19.08;60.49;100423.13;143736;980;46004;-61
2022/11/17 06:10:59;;;;;;;18.05;13.40;;;;;;;19.17;60.60;100411.72;143724;566;46012;-60
2022/11/17 06:13:36;;;;;;;17.23;13.05;;;;;;;19.23;60.68;100416.97;143725;972;46006;-61
2022/11/17 06:16:15;;;;;;;17.35;13.43;;;;;;;19.30;60.14;100427.59;143726;650;46004;-61
2022/11/17 06:18:57;;;;;;;17.27;12.73;;;;;;;19.34;60.02;100422.44;143725;589;47002;-61
2022/11/17 06:21:41;;;;;;;19.80;12.80;;;;;;;19.38;60.55;100429.81;143726;795;46011;-60
2022/11/17 06:24:19;;;;;;;17.98;12.23;;;;;;;19.45;60.83;100415.16;143726;572;46006;-61
2022/11/17 06:26:56;;;;;;;17.35;11.63;;;;;;;19.45;61.10;100423.31;143728;584;46008;-61
2022/11/17 06:29:40;;;;;;;21.05;12.20;;;;;;;19.48;60.83;100420.88;143726;567;46006;-62
2022/11/17 06:32:20;;;;;;;16.73;12.02;;;;;;;19.53;61.09;100407.28;143726;674;46008;-60
2022/11/17 06:35:06;;;;;;;;;;;;;;;;;;;;;
2022/11/17 06:37:49;;;;;;;21.30;15.77;;;;;;;19.58;60.82;100439.16;143727;608;46006;-61
2022/11/17 06:40:25;;;;;;;18.35;13.65;;;;;;;19.61;60.52;100440.53;143729;680;46008;-61
2022/11/17 06:43:15;;;;;;;15.73;12.10;;;;;;;19.59;60.34;100435.34;143724;588;46012;-62
2022/11/17 06:45:53;;;;;;;15.35;12.20;;;;;;;19.56;61.03;100427.72;143725;885;46006;-62
2022/11/17 06:48:34;;;;;;;13.98;11.63;;;;;;;19.53;61.19;100429.06;143727;587;46008;-61
2022/11/17 06:51:12;;;;;;;15.38;11.88;;;;;;;19.54;61.26;100435.31;143727;585;46013;-61
2022/11/17 06:53:47;;;;;;;15.55;11.35;;;;;;;19.57;60.65;100429.34;143730;640;45012;-61
2022/11/17 06:56:22;;;;;;;15.85;11.65;;;;;;;19.60;60.49;100422.53;143725;585;46006;-61
2022/11/17 06:58:58;;;;;;;18.27;12.05;;;;;;;19.53;60.07;100426.34;143725;580;46004;-62
2022/11/17 07:01:37;;;;;;;16.02;11.55;;;;;;;19.60;60.41;100417.09;143729;592;46010;-61
2022/11/17 07:04:14;;;;;;;22.15;16.00;;;;;;;19.63;60.18;100422.00;143726;569;46010;-61
2022/11/17 07:06:51;;;;;;;20.05;14.23;;;;;;;19.68;60.86;100419.31;143727;591;46012;-62
2022/11/17 07:09:32;;;;;;;19.17;13.88;;;;;;;19.74;60.79;100415.53;143727;667;46922;-61
2022/11/17 07:12:08;;;;;;;20.17;14.55;;;;;;;19.77;61.10;100409.53;143728;579;47008;-62
2022/11/17 07:14:43;;;;;;;21.73;15.60;;;;;;;19.82;60.72;100412.28;143727;583;46010;-62
2022/11/17 07:17:19;;;;;;;25.85;17.67;;;;;;;19.79;61.29;100401.09;143725;574;46006;-62
2022/11/17 07:20:00;;;;;;;26.62;20.75;;;;;;;19.88;60.81;100399.50;143725;882;47004;-62
2022/11/17 07:22:35;;;;;;;24.30;19.75;;;;;;;19.93;60.19;100393.28;143725;597;47002;-62
2022/11/17 07:25:14;;;;;;;22.27;16.58;;;;;;;19.97;60.64;100383.44;143724;603;46012;-61
2022/11/17 07:27:57;;;;;;;22.25;14.85;;;;;;;20.00;60.36;100388.34;143725;567;46006;-60
2022/11/17 07:30:33;;;;;;;21.98;14.87;;;;;;;19.93;60.63;100380.44;143728;572;46008;-61
2022/11/17 07:33:10;;;;;;;26.20;16.98;;;;;;;19.98;61.22;100382.34;143728;779;46006;-60
2022/11/17 07:35:46;;;;;;;23.83;17.62;;;;;;;20.03;60.45;100385.09;143728;614;46011;-61
2022/11/17 07:38:22;;;;;;;23.67;18.30;;;;;;;20.05;61.79;100388.38;143726;642;46006;-61
2022/11/17 07:41:07;;;;;;;28.55;18.00;;;;;;;20.07;61.28;100394.38;143724;692;47006;-60
2022/11/17 07:43:44;;;;;;;29.73;18.75;;;;;;;20.10;61.07;100393.00;143729;878;46010;-62
2022/11/17 07:46:19;;;;;;;25.00;16.90;;;;;;;20.04;61.12;100400.38;143725;985;46012;-62
2022/11/17 07:48:59;;;;;;;28.02;18.87;;;;;;;20.06;61.85;100402.81;143726;851;46013;-62
2022/11/17 07:51:36;;;;;;;27.73;18.90;;;;;;;20.08;61.54;100398.75;143728;589;46008;-61
2022/11/17 07:54:14;;;;;;;31.73;22.58;;;;;;;20.10;61.58;100403.91;143728;602;46008;-62
2022/11/17 07:57:00;;;;;;;30.42;21.25;;;;;;;20.11;61.15;100394.66;143727;809;46011;-61
2022/11/17 07:59:47;;;;;;;34.25;22.27;;;;;;;20.14;61.29;100397.66;143726;584;46012;-62
2022/11/17 08:02:28;;;;;;;32.60;23.75;;;;;;;20.13;61.40;100412.38;143726;907;46008;-61
2022/11/17 08:05:02;;;;;;;28.33;21.33;;;;;;;20.12;60.93;100402.53;143726;577;47002;-61
2022/11/17 08:07:37;;;;;;;33.63;22.05;;;;;;;20.13;61.22;100390.56;143726;712;46022;-60
2022/11/17 08:10:25;;;;;;;28.85;20.35;;;;;;;20.19;60.84;100379.66;143725;598;46006;-62
2022/11/17 08:13:02;;;;;;;31.98;21.10;;;;;;;20.21;61.03;100375.56;143724;979;47006;-62
2022/11/17 08:15:41;;;;;;;34.47;23.15;;;;;;;20.21;62.16;100381.00;143727;579;46004;-62
2022/11/17 08:18:18;;;;;;;30.10;22.75;;;;;;;20.25;61.09;100373.13;143723;599;48010;-61
2022/11/17 08:20:54;;;;;;;31.67;22.73;;;;;;;20.25;61.62;100381.31;143718;603;46006;-62
2022/11/17 08:23:34;;;;;;;39.47;22.65;;;;;;;20.29;60.94;100383.22;143724;678;46004;-61
2022/11/17 08:26:13;;;;;;;32.95;23.65;;;;;;;20.37;60.18;100386.50;143726;648;46006;-61
2022/11/17 08:28:49;;;;;;;28.48;19.00;;;;;;;20.44;58.26;100398.78;143725;965;46010;-62
2022/11/17 08:31:34;;;;;;;36.75;25.67;;;;;;;20.50;60.29;100396.03;143723;648;47006;-62
2022/11/17 08:34:12;;;;;;;35.00;24.95;;;;;;;20.55;60.51;100385.13;143725;743;46004;-62
2022/11/17 08:36:49;;;;;;;38.65;26.87;;;;;;;20.62;59.78;100361.12;143726;590;46006;-63
2022/11/17 08:39:32;;;;;;;16.33;9.73;;;;;;;20.71;54.47;100391.38;143726;572;46010;-60
2022/11/17 08:42:11;;;;;;;16.25;10.85;;;;;;;20.75;53.53;100387.00;143725;872;47006;-62
2022/11/17 08:44:55;;;;;;;19.52;13.62;;;;;;;20.89;53.98;100390.00;143727;568;46008;-61
2022/11/17 08:47:30;;;;;;;36.78;25.60;;;;;;;20.98;54.45;100382.06;143721;577;46004;-61
2022/11/17 08:50:03;;;;;;;36.70;22.67;;;;;;;21.07;54.48;100391.34;143724;669;46008;-60
2022/11/17 08:52:42;;;;;;;23.17;13.80;;;;;;;21.16;53.46;100378.75;143722;576;46010;-60
2022/11/17 08:55:19;;;;;;;27.42;20.88;;;;;;;21.27;52.43;100387.72;143727;593;46008;-60
2022/11/17 08:57:59;;;;;;;18.05;12.07;;;;;;;21.23;52.29;100370.25;143728;667;46009;-60
2022/11/17 09:00:45;;;;;;;;;;;;;;;;;;;;;
2022/11/17 09:03:23;;;;;;;14.85;8.35;;;;;;;21.26;52.18;100363.44;143725;648;46010;-61
2022/11/17 09:06:08;;;;;;;9.80;6.07;;;;;;;21.24;51.32;100358.25;143726;592;46008;-61
2022/11/17 09:08:48;;;;;;;13.38;6.30;;;;;;;21.13;51.23;100359.37;143725;581;46008;-60
2022/11/17 09:11:26;;;;;;;9.93;6.00;;;;;;;21.10;51.25;100366.19;143725;591;46012;-61
2022/11/17 09:14:02;;;;;;;9.52;6.03;;;;;;;21.14;50.92;100382.87;143722;598;46010;-59
2022/11/17 09:16:36;;;;;;;7.85;5.70;;;;;;;21.16;50.98;100384.22;143725;603;46008;-60
2022/11/17 09:19:13;;;;;;;9.60;5.93;;;;;;;21.08;50.44;100379.34;143726;594;46011;-60
2022/11/17 09:21:52;;;;;;;17.02;9.07;;;;;;;21.13;51.08;100376.56;143724;586;46012;-61
2022/11/17 09:24:44;;;;;;;16.42;7.18;;;;;;;21.14;51.00;100372.75;143726;894;46006;-60
2022/11/17 09:27:22;;;;;;;18.42;12.82;;;;;;;21.14;51.54;100369.22;143726;594;46009;-61
2022/11/17 09:30:07;;;;;;;20.52;15.40;;;;;;;21.18;51.61;100367.56;143726;572;46010;-60
2022/11/17 09:32:46;;;;;;;11.23;6.47;;;;;;;21.18;49.21;100373.84;143724;593;46010;-61
2022/11/17 09:35:21;;;;;;;16.12;9.25;;;;;;;21.19;52.11;100367.28;143725;596;46011;-61
2022/11/17 09:38:02;;;;;;;15.65;9.75;;;;;;;21.22;53.09;100365.87;143726;627;46008;-62
2022/11/17 09:40:40;;;;;;;18.08;9.07;;;;;;;21.21;53.14;100361.53;143721;760;46010;-61
2022/11/17 09:43:37;;;;;;;15.40;8.77;;;;;;;21.22;52.43;100371.34;143724;579;46010;-61
2022/11/17 09:46:45;;;;;;;21.95;10.80;;;;;;;21.26;54.08;100372.44;143726;718;46006;-62
2022/11/17 09:50:04;;;;;;;19.65;12.05;;;;;;;21.28;56.42;100372.16;143724;764;46009;-60
2022/11/17 09:53:26;;;;;;;27.48;18.52;;;;;;;21.32;58.13;100363.13;143726;685;46008;-62
2022/11/17 09:56:08;;;;;;;24.00;19.02;;;;;;;21.32;58.75;100375.97;143725;573;46011;-62
2022/11/17 09:58:54;;;;;;;25.60;18.20;;;;;;;21.40;57.94;100380.84;143725;603;46006;-62
2022/11/17 10:01:35;;;;;;;29.95;19.10;;;;;;;21.71;57.39;100366.25;143723;573;46008;-61
2022/11/17 10:04:31;;;;;;;39.67;19.25;;;;;;;22.04;56.47;100350.97;143729;569;46008;-62
2022/11/17 10:07:15;;;;;;;24.33;16.77;;;;;;;22.03;56.64;100351.28;143724;622;46920;-62
2022/11/17 10:09:54;;;;;;;30.67;16.25;;;;;;;21.96;56.64;100351.59;143718;606;46006;-61
2022/11/17 10:12:43;;;;;;;;;;;;;;;;;;;;;
2022/11/17 10:15:49;;;;;;;23.62;15.63;;;;;;;22.11;56.03;100354.22;143725;596;46008;-62
2022/11/17 10:18:28;;;;;;;24.27;16.10;;;;;;;23.42;53.02;100341.69;143725;589;46006;-62
2022/11/17 10:21:19;;;;;;;27.30;19.37;;;;;;;25.27;48.17;100330.62;143725;640;47006;-61
2022/11/17 10:24:10;;;;;;;29.80;17.58;;;;;;;25.08;48.36;100331.56;143725;653;46008;-62
2022/11/17 10:26:52;;;;;;;23.98;16.52;;;;;;;24.51;49.59;100329.88;143726;686;46006;-62
2022/11/17 10:29:32;;;;;;;23.12;16.25;;;;;;;23.77;51.46;100334.06;143725;567;46010;-61
2022/11/17 10:32:17;;;;;;;28.80;18.35;;;;;;;23.35;52.19;100343.16;143725;568;46006;-61
2022/11/17 10:34:53;;;;;;;26.02;18.73;;;;;;;23.06;53.18;100338.53;143726;604;46009;-62
2022/11/17 10:37:35;;;;;;;34.08;18.17;;;;;;;22.89;53.44;100331.63;143720;598;46008;-61
2022/11/17 10:40:24;;;;;;;28.75;18.58;;;;;;;22.83;52.77;100328.13;143725;566;46008;-61
2022/11/17 10:43:29;;;;;;;30.70;16.58;;;;;;;22.91;50.90;100326.66;143726;662;46006;-61
2022/11/17 10:46:24;;;;;;;13.02;6.10;;;;;;;23.15;45.94;100329.38;143727;575;46008;-61
2022/11/17 10:49:22;;;;;;;10.75;4.82;;;;;;;23.07;44.17;100332.78;143727;705;46010;-62
2022/11/17 10:52:26;;;;;;;7.28;4.60;;;;;;;22.95;46.11;100326.88;143725;568;46010;-62
2022/11/17 10:55:20;;;;;;;22.48;11.30;;;;;;;22.71;48.79;100328.53;143728;586;46006;-62
2022/11/17 10:57:59;;;;;;;15.73;8.70;;;;;;;22.61;47.75;100330.53;143726;602;46009;-61
2022/11/17 11:00:52;;;;;;;;;;;;;;;;;;;;;
2022/11/17 11:03:31;;;;;;;13.00;6.12;;;;;;;22.89;46.82;100333.56;143723;583;46010;-61
2022/11/17 11:06:24;;;;;;;15.30;5.90;;;;;;;23.07;46.55;100326.47;143720;602;46010;-62
2022/11/17 11:09:33;;;;;;;12.00;4.87;;;;;;;23.16;43.68;100314.59;143730;606;47008;-61
2022/11/17 11:12:17;;;;;;;11.07;6.05;;;;;;;22.93;45.03;100316.25;143727;598;46007;-62
2022/11/17 11:15:03;;;;;;;12.50;7.93;;;;;;;22.89;45.47;100312.44;143734;582;46006;-61
2022/11/17 11:17:38;;;;;;;15.80;7.30;;;;;;;22.89;45.87;100308.91;143730;569;46010;-61
2022/11/17 11:20:28;;;;;;;16.48;7.28;;;;;;;22.89;46.17;100312.44;143731;581;46008;-62
2022/11/17 11:23:53;;;;;;;8.93;4.22;;;;;;;22.89;44.95;100311.66;143733;679;46004;-61
2022/11/17 11:26:55;;;;;;;12.15;4.35;;;;;;;22.90;45.23;100313.28;143728;567;47922;-62
2022/11/17 11:30:11;;;;;;;11.05;4.32;;;;;;;22.97;44.68;100313.72;143727;662;46006;-61
2022/11/17 11:33:33;;;;;;;7.87;3.92;;;;;;;23.14;44.55;100316.78;143731;570;46008;-61
2022/11/17 11:36:52;;;;;;;;;;;;;;;;;;;;;
2022/11/17 11:40:05;;;;;;;14.13;7.12;;;;;;;24.44;42.40;100304.75;143730;721;46018;-61
2022/11/17 11:42:59;;;;;;;14.90;7.80;;;;;;;24.46;42.70;100297.00;143729;657;47006;-62
2022/11/17 11:46:07;;;;;;;8.17;6.33;;;;;;;24.25;42.52;100287.53;143728;702;46008;-62
2022/11/17 11:48:55;;;;;;;11.63;5.90;;;;;;;24.07;42.94;100285.34;143734;612;46006;-62
2022/11/17 11:51:46;;;;;;;10.98;5.15;;;;;;;23.99;42.96;100283.31;143730;576;46012;-62
2022/11/17 11:54:37;;;;;;;11.27;4.10;;;;;;;23.89;43.23;100289.75;143731;760;47006;-61
2022/11/17 11:57:26;;;;;;;13.80;5.93;;;;;;;23.81;43.65;100295.09;143733;588;46009;-62
2022/11/17 12:00:17;;;;;;;13.52;5.75;;;;;;;23.76;43.95;100287.75;143731;569;46006;-62
2022/11/17 12:03:41;;;;;;;14.27;4.62;;;;;;;23.74;44.36;100287.22;143731;588;46011;-61
2022/11/17 12:06:42;;;;;;;13.27;5.03;;;;;;;23.76;44.80;100285.81;143727;582;46010;-61
2022/11/17 12:09:39;;;;;;;7.50;3.80;;;;;;;23.84;43.88;100287.06;143727;697;47008;-61
2022/11/17 12:12:22;;;;;;;13.68;4.87;;;;;;;23.91;44.16;100282.03;143727;567;46009;-62
2022/11/17 12:15:13;;;;;;;11.60;4.78;;;;;;;23.95;44.12;100279.50;143725;581;46012;-61
2022/11/17 12:18:39;;;;;;;15.93;6.07;;;;;;;23.94;44.47;100269.62;143724;573;47007;-61
2022/11/17 12:21:38;;;;;;;12.52;5.18;;;;;;;23.83;44.85;100271.72;143727;650;46008;-61
2022/11/17 12:24:50;;;;;;;13.07;3.78;;;;;;;23.68;44.02;100286.50;143729;572;46004;-61
2022/11/17 12:27:57;;;;;;;14.20;4.57;;;;;;;23.54;45.61;100282.88;143725;606;46010;-61
2022/11/17 12:30:54;;;;;;;10.02;3.90;;;;;;;23.28;46.04;100284.06;143727;566;46006;-62
2022/11/17 12:34:14;;;;;;;12.73;4.35;;;;;;;23.21;46.60;100280.06;143728;583;46009;-61
2022/11/17 12:37:29;;;;;;;8.35;4.30;;;;;;;23.04;47.30;100286.81;143721;602;46010;-62
2022/11/17 12:40:37;;;;;;;10.73;4.28;;;;;;;23.13;47.03;100296.00;143725;573;46010;-61
2022/11/17 12:43:53;;;;;;;12.02;4.80;;;;;;;23.26;47.62;100290.94;143727;596;46011;-60
2022/11/17 12:47:00;;;;;;;;;;;;;;;;;;;;;
2022/11/17 12:50:13;;;;;;;;;;;;;;;;;;;;;
2022/11/17 12:53:31;;;;;;;;;;;;;;;;;;;;;
2022/11/17 12:56:42;;;;;;;11.32;4.78;;;;;;;23.18;46.83;100284.19;143728;579;46012;-60
2022/11/17 12:59:53;;;;;;;9.88;3.80;;;;;;;23.13;47.40;100273.28;143727;611;46006;-62
2022/11/17 13:03:08;;;;;;;19.40;9.55;;;;;;;23.07;47.39;100283.50;143728;658;46004;-61
2022/11/17 13:05:46;;;;;;;9.30;4.80;;;;;;;23.06;47.84;100286.50;143726;592;46008;-61
2022/11/17 13:08:42;;;;;;;17.70;6.22;;;;;;;23.06;47.55;100287.34;143726;584;47013;-61
2022/11/17 13:11:21;;;;;;;23.62;8.35;;;;;;;23.06;46.80;100294.72;143732;744;46006;-61
2022/11/17 13:14:20;;;;;;;24.30;10.43;;;;;;;23.05;47.16;100293.09;143730;603;46010;-61
2022/11/17 13:17:14;;;;;;;18.85;10.18;;;;;;;23.05;47.51;100296.66;143726;573;46010;-62
2022/11/17 13:20:18;;;;;;;11.90;5.82;;;;;;;23.05;46.52;100298.56;143726;619;46004;-62
2022/11/17 13:23:15;;;;;;;14.38;7.70;;;;;;;23.03;46.49;100301.63;143734;566;46006;-61
2022/11/17 13:25:54;;;;;;;16.73;6.12;;;;;;;23.00;46.62;100292.06;143733;568;46002;-61
2022/11/17 13:28:34;;;;;;;13.95;6.40;;;;;;;22.98;46.20;100293.44;143729;569;46010;-62